Time;durP1;ratioP1;P1;durP2;ratioP2;P2;SDS_P1;SDS_P2;PMS_P1;PMS_P2;Temp;Humidity;BMP_temperature;BMP_pressure;BME280_temperature;BME280_humidity;BME280_pressure;Samples;Min_cycle;Max_cycle;Signal;HPM_P1;HPM_P2
2023/04/22 00:00:16;;;;;;;32.03;10.95;;;5.20;99.90;;;;;;5030721;28;20152;-83
2023/04/22 00:02:43;;;;;;;33.47;10.70;;;5.10;99.90;;;;;;5034540;28;20072;-83
2023/04/22 00:05:12;;;;;;;27.27;9.73;;;5.10;99.90;;;;;;5035563;28;20067;-83
2023/04/22 00:07:42;;;;;;;32.03;9.77;;;5.10;99.90;;;;;;5034848;28;20037;-83
2023/04/22 00:10:08;;;;;;;26.25;9.52;;;5.00;99.90;;;;;;5035709;28;20038;-82
2023/04/22 00:12:35;;;;;;;33.10;10.77;;;5.00;99.90;;;;;;5035460;28;20045;-82
2023/04/22 00:15:02;;;;;;;24.58;9.40;;;4.90;99.90;;;;;;5017181;28;20041;-82
2023/04/22 00:20:15;;;;;;;32.30;10.82;;;4.90;99.90;;;;;;5034627;28;20071;-83
2023/04/22 00:22:41;;;;;;;31.90;8.60;;;4.80;99.90;;;;;;5035285;28;20120;-83
2023/04/22 00:25:08;;;;;;;35.70;11.27;;;4.80;99.90;;;;;;5034313;28;20045;-83
2023/04/22 00:30:22;;;;;;;31.98;11.05;;;4.80;99.90;;;;;;5035519;28;20045;-81
2023/04/22 00:32:49;;;;;;;34.05;11.32;;;4.80;99.90;;;;;;5034205;28;20073;-81
2023/04/22 00:35:16;;;;;;;30.35;9.93;;;4.70;99.90;;;;;;5033391;28;20395;-83
2023/04/22 00:37:43;;;;;;;34.25;12.05;;;4.70;99.90;;;;;;5017887;28;20045;-84
2023/04/22 00:40:10;;;;;;;30.45;9.60;;;4.70;99.90;;;;;;5034186;28;20037;-81
2023/04/22 00:42:37;;;;;;;33.05;9.70;;;4.70;99.90;;;;;;5034483;28;20064;-83
2023/04/22 00:45:04;;;;;;;28.08;9.02;;;4.60;99.90;;;;;;5033862;28;20052;-82
2023/04/22 00:47:33;;;;;;;23.35;8.90;;;4.60;99.90;;;;;;5032648;28;20057;-81
2023/04/22 00:50:00;;;;;;;25.45;9.65;;;4.60;99.90;;;;;;5033934;28;20460;-82
2023/04/22 00:52:27;;;;;;;36.05;10.95;;;4.60;99.90;;;;;;5034785;28;20042;-82
2023/04/22 00:54:54;;;;;;;30.63;10.38;;;4.60;99.90;;;;;;5033073;28;20041;-81
2023/04/22 00:57:21;;;;;;;28.63;10.13;;;4.60;99.90;;;;;;5033943;28;20038;-83
2023/04/22 00:59:47;;;;;;;33.35;11.68;;;4.60;99.90;;;;;;5016796;28;20057;-82
2023/04/22 01:02:14;;;;;;;29.52;9.98;;;4.60;99.90;;;;;;5034637;28;20132;-83
2023/04/22 01:04:41;;;;;;;26.70;10.27;;;4.70;99.90;;;;;;5033365;28;20041;-82
2023/04/22 01:09:57;;;;;;;26.17;8.90;;;4.70;99.90;;;;;;5034748;28;20056;-82
2023/04/22 01:12:24;;;;;;;35.17;10.55;;;4.70;99.90;;;;;;5033710;28;20487;-81
2023/04/22 01:14:50;;;;;;;39.53;10.25;;;4.80;99.90;;;;;;5032872;28;20095;-83
2023/04/22 01:17:18;;;;;;;34.03;11.13;;;4.80;99.90;;;;;;5017274;28;20079;-80
2023/04/22 01:19:46;;;;;;;29.15;9.98;;;4.80;99.90;;;;;;5033685;28;20053;-82
2023/04/22 01:22:12;;;;;;;29.92;9.15;;;4.80;99.90;;;;;;5017220;28;20069;-82
2023/04/22 01:24:39;;;;;;;28.63;9.63;;;4.80;99.90;;;;;;5017337;28;20136;-82
2023/04/22 01:27:07;;;;;;;30.45;10.27;;;4.80;99.90;;;;;;5032916;28;20045;-83
2023/04/22 01:29:34;;;;;;;29.83;9.32;;;4.80;99.90;;;;;;5034726;28;20041;-82
2023/04/22 01:32:00;;;;;;;24.60;9.43;;;4.70;99.90;;;;;;5033467;28;20111;-83
2023/04/22 01:34:28;;;;;;;24.45;9.02;;;4.80;99.90;;;;;;5016447;28;20045;-82
2023/04/22 01:36:54;;;;;;;28.63;9.57;;;4.70;99.90;;;;;;5033387;28;20041;-82
2023/04/22 01:39:21;;;;;;;29.95;9.98;;;4.70;99.90;;;;;;5033564;28;20049;-82
2023/04/22 01:41:48;;;;;;;25.67;9.85;;;4.60;99.90;;;;;;5032368;28;20123;-83
2023/04/22 01:44:15;;;;;;;32.05;9.52;;;4.60;99.90;;;;;;5033328;28;20491;-81
2023/04/22 01:46:42;;;;;;;28.33;9.82;;;4.60;99.90;;;;;;5016065;28;20395;-82
2023/04/22 01:49:10;;;;;;;30.60;11.10;;;4.60;99.90;;;;;;5034337;28;20033;-81
2023/04/22 01:51:37;;;;;;;23.58;8.50;;;4.60;99.90;;;;;;5034338;28;20333;-82
2023/04/22 01:54:04;;;;;;;29.48;10.20;;;4.70;99.90;;;;;;5032423;28;20456;-80
2023/04/22 01:56:31;;;;;;;36.05;11.57;;;4.70;99.90;;;;;;5016902;28;20048;-83
2023/04/22 01:58:58;;;;;;;34.05;11.60;;;4.70;99.90;;;;;;5033203;28;20526;-83
2023/04/22 02:01:28;;;;;;;31.92;11.32;;;4.70;99.90;;;;;;5032375;28;20068;-81
2023/04/22 02:03:55;;;;;;;29.50;10.32;;;4.80;99.90;;;;;;5033042;28;20042;-83
2023/04/22 02:06:22;;;;;;;27.10;9.15;;;4.70;99.90;;;;;;5033082;28;20447;-82
2023/04/22 02:08:51;;;;;;;30.98;10.45;;;4.80;99.90;;;;;;5032254;28;20056;-83
2023/04/22 02:11:17;;;;;;;36.85;10.02;;;4.70;99.90;;;;;;5034336;28;20037;-83
2023/04/22 02:13:44;;;;;;;29.33;10.00;;;4.80;99.90;;;;;;5032181;28;20479;-83
2023/04/22 02:16:10;;;;;;;36.88;12.13;;;4.80;99.90;;;;;;5016730;28;20033;-81
2023/04/22 02:18:38;;;;;;;32.38;10.73;;;4.80;99.90;;;;;;5035699;28;20041;-83
2023/04/22 02:21:07;;;;;;;29.20;10.43;;;4.80;99.90;;;;;;5019613;28;20059;-82
2023/04/22 02:23:33;;;;;;;25.13;9.38;;;4.90;99.90;;;;;;5020129;28;20400;-83
2023/04/22 02:26:00;;;;;;;31.25;11.38;;;4.90;99.90;;;;;;5036611;28;20048;-81
2023/04/22 02:28:28;;;;;;;28.83;11.13;;;5.00;99.90;;;;;;5036528;28;20052;-81
2023/04/22 02:30:56;;;;;;;29.75;8.90;;;5.00;99.90;;;;;;5036422;28;20128;-81
2023/04/22 02:33:23;;;;;;;38.72;10.55;;;5.00;99.90;;;;;;5019106;28;20046;-83
2023/04/22 02:35:52;;;;;;;29.65;9.57;;;5.00;99.90;;;;;;5020103;28;20076;-81
2023/04/22 02:41:05;;;;;;;32.70;10.65;;;5.00;99.90;;;;;;5035432;28;20142;-82
2023/04/22 02:43:34;;;;;;;32.63;10.20;;;5.00;99.90;;;;;;5036270;28;20100;-81
2023/04/22 02:46:01;;;;;;;31.33;10.18;;;5.10;99.90;;;;;;5019906;28;20122;-83
2023/04/22 02:48:28;;;;;;;31.25;11.20;;;5.10;99.90;;;;;;5018791;28;20471;-81
2023/04/22 02:50:55;;;;;;;33.22;11.00;;;5.10;99.90;;;;;;5019600;28;20049;-81
2023/04/22 02:53:21;;;;;;;29.58;10.20;;;5.10;99.90;;;;;;5018785;28;20436;-82
2023/04/22 02:55:48;;;;;;;30.58;10.73;;;5.00;99.90;;;;;;5019624;28;20424;-82
2023/04/22 02:58:17;;;;;;;28.73;10.85;;;5.00;99.90;;;;;;5036090;28;20049;-81
2023/04/22 03:00:44;;;;;;;31.35;11.18;;;4.90;99.90;;;;;;5018813;28;20049;-82
2023/04/22 03:03:11;;;;;;;29.60;9.70;;;4.90;99.90;;;;;;5036043;28;20107;-82
2023/04/22 03:05:38;;;;;;;29.65;9.80;;;4.80;99.90;;;;;;5035698;28;20060;-83
2023/04/22 03:08:06;;;;;;;27.50;10.10;;;4.80;99.90;;;;;;5036011;28;20131;-83
2023/04/22 03:10:33;;;;;;;35.85;9.13;;;4.80;99.90;;;;;;5036870;28;20111;-81
2023/04/22 03:13:00;;;;;;;30.45;9.80;;;4.80;99.90;;;;;;5035690;28;20037;-83
2023/04/22 03:15:26;;;;;;;25.83;9.73;;;4.80;99.90;;;;;;5035680;28;20045;-82
2023/04/22 03:20:39;;;;;;;29.70;9.88;;;4.70;99.90;;;;;;5034674;28;20050;-82
2023/04/22 03:23:07;;;;;;;32.63;9.57;;;4.70;99.90;;;;;;5019076;28;20041;-80
2023/04/22 03:25:35;;;;;;;35.88;10.15;;;4.70;99.90;;;;;;5035478;28;20398;-82
2023/04/22 03:30:49;;;;;;;27.80;8.77;;;4.70;99.90;;;;;;5035761;28;20099;-81
2023/04/22 03:33:16;;;;;;;29.40;10.07;;;4.60;99.90;;;;;;5018033;28;20537;-82
2023/04/22 03:35:50;;;;;;;35.47;11.13;;;4.60;99.90;;;;;;5020036;28;20049;-83
2023/04/22 03:38:17;;;;;;;31.98;9.93;;;4.50;99.90;;;;;;5035078;28;20049;-83
2023/04/22 03:40:44;;;;;;;34.72;9.90;;;4.50;99.90;;;;;;5018257;28;20421;-82
2023/04/22 03:43:21;;;;;;;28.20;9.85;;;4.50;99.90;;;;;;5035188;28;20041;-81
2023/04/22 03:45:58;;;;;;;38.13;11.75;;;4.50;99.90;;;;;;5035004;28;20083;-82
2023/04/22 03:51:22;;;;;;;24.20;8.35;;;4.50;99.90;;;;;;5035191;28;20464;-81
2023/04/22 03:53:50;;;;;;;26.33;9.20;;;4.40;99.90;;;;;;5034029;28;20042;-83
2023/04/22 03:56:20;;;;;;;30.58;10.23;;;4.40;99.90;;;;;;5034701;28;20044;-83
2023/04/22 03:58:48;;;;;;;23.13;9.35;;;4.40;99.90;;;;;;5018661;28;20108;-80
2023/04/22 04:01:15;;;;;;;29.75;9.23;;;4.40;99.90;;;;;;5033859;28;20049;-81
2023/04/22 04:03:46;;;;;;;25.77;8.30;;;4.40;99.90;;;;;;5034847;28;20461;-81
2023/04/22 04:06:15;;;;;;;27.60;9.93;;;4.40;99.90;;;;;;5034509;28;20132;-81
2023/04/22 04:08:43;;;;;;;29.00;9.55;;;4.40;99.90;;;;;;5034575;28;20037;-81
2023/04/22 04:11:10;;;;;;;31.83;9.82;;;4.40;99.90;;;;;;5034609;28;20041;-82
2023/04/22 04:13:37;;;;;;;28.80;9.93;;;4.50;99.90;;;;;;5033542;28;20073;-82
2023/04/22 04:16:17;;;;;;;30.77;9.77;;;4.50;99.90;;;;;;5034450;28;20060;-83
2023/04/22 04:18:50;;;;;;;26.42;9.25;;;4.50;99.90;;;;;;5034445;28;20045;-81
2023/04/22 04:21:18;;;;;;;28.52;9.70;;;4.60;99.90;;;;;;5033606;28;20149;-82
2023/04/22 04:23:48;;;;;;;26.90;9.50;;;4.60;99.90;;;;;;5018514;28;20045;-83
2023/04/22 04:26:17;;;;;;;27.90;9.57;;;4.60;99.90;;;;;;5035055;28;20356;-82
2023/04/22 04:28:48;;;;;;;32.25;10.10;;;4.60;99.90;;;;;;5033375;28;20387;-81
2023/04/22 04:31:16;;;;;;;27.63;10.20;;;4.60;99.90;;;;;;5034811;28;20136;-81
2023/04/22 04:33:43;;;;;;;28.95;9.02;;;4.70;99.90;;;;;;5033331;28;20033;-80
2023/04/22 04:36:10;;;;;;;29.77;10.23;;;4.60;99.90;;;;;;5034029;28;20053;-79
2023/04/22 04:41:27;;;;;;;30.80;10.88;;;4.70;99.90;;;;;;5032454;28;20063;-82
2023/04/22 04:43:55;;;;;;;27.25;10.35;;;4.70;99.90;;;;;;5033867;28;20041;-82
2023/04/22 04:46:28;;;;;;;22.73;8.90;;;4.70;99.90;;;;;;5018495;28;20060;-81
2023/04/22 04:48:58;;;;;;;34.47;10.20;;;4.60;99.90;;;;;;5033737;28;20037;-82
2023/04/22 04:51:31;;;;;;;37.38;16.17;;;4.60;99.90;;;;;;5018144;28;20037;-82
2023/04/22 04:53:59;;;;;;;29.83;10.88;;;4.60;99.90;;;;;;5017026;28;20108;-81
2023/04/22 04:56:32;;;;;;;29.90;10.27;;;4.70;99.90;;;;;;5034657;28;20037;-81
2023/04/22 04:59:00;;;;;;;27.33;10.02;;;4.70;99.90;;;;;;5017453;28;20132;-82
2023/04/22 05:01:27;;;;;;;32.20;11.05;;;4.70;99.90;;;;;;5033163;28;20136;-83
2023/04/22 05:04:00;;;;;;;;;;;4.80;99.90;;;;;;5034319;28;20132;-83
2023/04/22 05:06:27;;;;;;;33.17;11.13;;;4.80;99.90;;;;;;5033000;28;19921;-81
2023/04/22 05:09:01;;;;;;;32.50;10.63;;;4.80;99.90;;;;;;5018458;28;20044;-82
2023/04/22 05:11:28;;;;;;;28.15;9.15;;;4.80;99.90;;;;;;5017322;28;20072;-82
2023/04/22 05:13:57;;;;;;;28.75;10.73;;;4.90;99.90;;;;;;5032753;28;20041;-83
2023/04/22 05:16:29;;;;;;;;;;;4.90;99.90;;;;;;5034627;28;20046;-81
2023/04/22 05:18:56;;;;;;;33.95;9.38;;;4.90;99.90;;;;;;5017462;28;19921;-80
2023/04/22 05:21:23;;;;;;;21.38;9.13;;;5.00;99.90;;;;;;5032732;28;20540;-83
2023/04/22 05:23:50;;;;;;;30.65;10.02;;;5.00;99.90;;;;;;5033530;28;20053;-81
2023/04/22 05:26:18;;;;;;;25.90;8.93;;;5.00;99.90;;;;;;5017358;28;20080;-82
2023/04/22 05:28:49;;;;;;;22.98;8.80;;;5.00;99.90;;;;;;5032707;28;20128;-83
2023/04/22 05:31:17;;;;;;;33.72;9.82;;;5.00;99.90;;;;;;5033824;28;20380;-80
2023/04/22 05:33:45;;;;;;;32.00;10.25;;;5.10;99.90;;;;;;5032657;28;20037;-82
2023/04/22 05:36:12;;;;;;;31.35;11.07;;;5.10;99.90;;;;;;5033454;28;20053;-83
2023/04/22 05:38:39;;;;;;;31.58;10.07;;;5.20;99.90;;;;;;5033503;28;20045;-82
2023/04/22 05:41:06;;;;;;;30.50;9.13;;;5.20;99.90;;;;;;5032498;28;20049;-83
2023/04/22 05:43:34;;;;;;;29.88;10.13;;;5.30;99.90;;;;;;5033317;28;20053;-83
2023/04/22 05:46:06;;;;;;;35.55;10.45;;;5.30;99.90;;;;;;5033629;28;20053;-80
2023/04/22 05:48:37;;;;;;;28.58;10.02;;;5.20;99.90;;;;;;5016908;28;20371;-83
2023/04/22 05:51:07;;;;;;;29.63;9.93;;;5.20;99.90;;;;;;5031365;28;20038;-81
2023/04/22 05:53:35;;;;;;;33.22;11.30;;;5.30;99.90;;;;;;5035774;28;20037;-81
2023/04/22 05:56:02;;;;;;;31.92;8.90;;;5.40;99.90;;;;;;5037078;28;20037;-83
2023/04/22 06:01:17;;;;;;;35.47;11.82;;;5.50;99.90;;;;;;5036118;28;20061;-81
2023/04/22 06:04:00;;;;;;;;;;;5.60;99.90;;;;;;5022973;28;20475;-81
2023/04/22 06:06:27;;;;;;;34.22;10.43;;;5.80;99.90;;;;;;5036122;28;19921;-79
2023/04/22 06:11:41;;;;;;;34.13;11.45;;;6.00;99.90;;;;;;5037592;28;20041;-80
2023/04/22 06:14:07;;;;;;;41.67;11.88;;;6.10;99.90;;;;;;5019445;28;20069;-81
2023/04/22 06:16:34;;;;;;;40.30;11.90;;;6.20;99.90;;;;;;5036694;28;20144;-80
2023/04/22 06:19:04;;;;;;;44.10;13.15;;;6.20;99.90;;;;;;5036888;28;20045;-80
2023/04/22 06:21:32;;;;;;;44.40;12.95;;;6.20;99.90;;;;;;5035733;28;20045;-80
2023/04/22 06:24:00;;;;;;;34.42;12.15;;;6.40;99.90;;;;;;5036831;28;20471;-80
2023/04/22 06:26:26;;;;;;;35.40;12.38;;;6.50;99.90;;;;;;5020113;28;20460;-81
2023/04/22 06:28:56;;;;;;;43.55;13.55;;;6.60;99.90;;;;;;5020238;28;20069;-80
2023/04/22 06:31:23;;;;;;;40.58;13.43;;;6.70;99.90;;;;;;5036498;28;20480;-81
2023/04/22 06:33:50;;;;;;;39.60;12.30;;;6.70;99.90;;;;;;5019238;28;20033;-81
2023/04/22 06:36:18;;;;;;;33.90;11.65;;;6.70;99.90;;;;;;5036275;28;20042;-81
2023/04/22 06:41:51;;;;;;;39.63;13.00;;;6.70;99.90;;;;;;4989677;28;20564;-82
2023/04/22 06:44:42;;;;;;;35.17;12.47;;;6.80;99.90;;;;;;5019794;28;20052;-81
2023/04/22 06:47:33;;;;;;;40.35;13.82;;;6.80;99.90;;;;;;5004058;28;20437;-82
2023/04/22 06:50:08;;;;;;;43.95;13.73;;;6.80;99.90;;;;;;5019554;28;20045;-81
2023/04/22 06:52:43;;;;;;;41.28;13.48;;;6.80;99.90;;;;;;5019472;28;20041;-81
2023/04/22 06:55:10;;;;;;;38.55;12.60;;;6.90;99.90;;;;;;5002364;28;20042;-82
2023/04/22 07:00:24;;;;;;;39.80;12.00;;;7.10;99.90;;;;;;5008849;28;20084;-80
2023/04/22 07:02:51;;;;;;;35.38;13.27;;;7.30;99.90;;;;;;5027601;28;20526;-82
2023/04/22 07:05:19;;;;;;;45.95;15.50;;;7.30;99.90;;;;;;5017596;28;20057;-84
2023/04/22 07:07:47;;;;;;;41.13;14.27;;;7.40;99.90;;;;;;5018206;28;20042;-82
2023/04/22 07:10:19;;;;;;;39.85;13.80;;;7.40;99.90;;;;;;5019107;28;20087;-80
2023/04/22 07:13:06;;;;;;;43.10;13.63;;;7.60;99.90;;;;;;5022263;28;20475;-80
2023/04/22 07:15:32;;;;;;;44.47;15.48;;;7.70;99.90;;;;;;5018788;28;20048;-81
2023/04/22 07:17:59;;;;;;;47.05;14.85;;;7.80;99.90;;;;;;5018862;28;20049;-81
2023/04/22 07:20:26;;;;;;;43.97;14.98;;;7.90;99.90;;;;;;5017971;28;20068;-79
2023/04/22 07:22:52;;;;;;;56.92;16.73;;;7.90;99.90;;;;;;5018770;28;20067;-79
2023/04/22 07:25:19;;;;;;;50.17;17.50;;;8.00;99.90;;;;;;5002421;28;20598;-79
2023/04/22 07:27:46;;;;;;;55.88;16.88;;;8.20;99.90;;;;;;5023967;28;20071;-82
2023/04/22 07:30:12;;;;;;;56.45;17.30;;;8.30;99.90;;;;;;4991327;28;20132;-84
2023/04/22 07:32:39;;;;;;;51.88;17.10;;;8.40;99.90;;;;;;5012680;28;20051;-84
2023/04/22 07:35:06;;;;;;;59.70;20.52;;;8.50;99.90;;;;;;5054149;28;20041;-83
2023/04/22 07:37:33;;;;;;;63.63;21.85;;;8.60;99.90;;;;;;5055400;28;20052;-81
2023/04/22 07:40:00;;;;;;;62.40;20.20;;;8.70;99.90;;;;;;5037275;28;20505;-82
2023/04/22 07:42:27;;;;;;;62.00;19.70;;;8.80;99.90;;;;;;5024123;28;20045;-84
2023/04/22 07:44:53;;;;;;;63.55;21.13;;;8.90;99.90;;;;;;5014604;28;20047;-82
2023/04/22 07:47:20;;;;;;;61.20;19.45;;;9.10;99.90;;;;;;5012644;28;20060;-83
2023/04/22 07:49:48;;;;;;;55.40;17.88;;;9.20;99.90;;;;;;5013230;28;20057;-83
2023/04/22 07:52:14;;;;;;;60.55;22.70;;;9.40;99.90;;;;;;5013130;28;20057;-80
2023/04/22 07:54:41;;;;;;;63.42;21.98;;;9.50;99.90;;;;;;5014373;28;20038;-79
2023/04/22 07:57:09;;;;;;;58.35;19.63;;;9.70;99.90;;;;;;5015094;28;20488;-81
2023/04/22 07:59:35;;;;;;;52.85;19.70;;;9.90;99.90;;;;;;5015994;28;20050;-80
2023/04/22 08:02:02;;;;;;;49.55;18.35;;;10.10;99.90;;;;;;5013243;28;20133;-81
2023/04/22 08:04:29;;;;;;;41.63;15.82;;;10.20;99.90;;;;;;5014803;28;20049;-81
2023/04/22 08:06:56;;;;;;;42.60;16.25;;;10.20;99.90;;;;;;5014219;28;20049;-80
2023/04/22 08:09:23;;;;;;;40.13;14.15;;;10.30;99.90;;;;;;4998261;28;20038;-81
2023/04/22 08:11:50;;;;;;;40.95;14.73;;;10.30;99.90;;;;;;5013794;28;20045;-80
2023/04/22 08:14:16;;;;;;;38.88;13.18;;;10.30;99.90;;;;;;5013365;28;20429;-80
2023/04/22 08:16:43;;;;;;;36.25;12.73;;;10.30;99.90;;;;;;5014378;28;20431;-81
2023/04/22 08:19:10;;;;;;;40.25;13.27;;;10.30;99.90;;;;;;5013765;28;20046;-79
2023/04/22 08:21:37;;;;;;;30.95;11.85;;;10.40;99.90;;;;;;5013582;28;20046;-81
2023/04/22 08:24:04;;;;;;;39.22;13.15;;;10.50;99.90;;;;;;5014602;28;20092;-80
2023/04/22 08:26:30;;;;;;;36.00;13.63;;;10.70;99.90;;;;;;5013603;28;20099;-81
2023/04/22 08:28:57;;;;;;;40.47;15.15;;;10.80;99.90;;;;;;5013842;28;20392;-79
2023/04/22 08:31:24;;;;;;;39.55;14.63;;;10.80;99.90;;;;;;5014207;28;20042;-80
2023/04/22 08:33:51;;;;;;;37.95;15.32;;;10.80;99.90;;;;;;5012343;28;20148;-81
2023/04/22 08:36:20;;;;;;;35.30;13.68;;;11.00;99.90;;;;;;5014969;28;20049;-79
2023/04/22 08:38:47;;;;;;;34.70;13.40;;;11.30;99.90;;;;;;5014831;28;20057;-81
2023/04/22 08:41:15;;;;;;;31.40;12.50;;;11.50;99.90;;;;;;4996210;28;20526;-80
2023/04/22 08:43:42;;;;;;;21.75;7.93;;;11.50;99.90;;;;;;5013918;28;20072;-81
2023/04/22 08:46:10;;;;;;;13.35;4.75;;;11.60;99.90;;;;;;5013786;28;20199;-80
2023/04/22 08:48:36;;;;;;;15.00;5.97;;;11.60;99.90;;;;;;4995966;28;20140;-80
2023/04/22 08:51:03;;;;;;;11.00;5.00;;;11.90;99.90;;;;;;5018686;28;20048;-79
2023/04/22 08:53:30;;;;;;;15.18;5.50;;;11.80;99.90;;;;;;5032485;28;20037;-82
2023/04/22 08:55:56;;;;;;;11.85;5.15;;;11.80;99.90;;;;;;5033425;28;20389;-81
2023/04/22 08:58:23;;;;;;;12.75;5.25;;;11.90;99.90;;;;;;5032460;28;20054;-82
2023/04/22 09:00:50;;;;;;;12.32;5.90;;;12.00;99.90;;;;;;5031310;28;20094;-82
2023/04/22 09:03:16;;;;;;;9.82;4.93;;;12.00;99.90;;;;;;5033612;28;20041;-80
2023/04/22 09:05:43;;;;;;;11.32;4.47;;;12.10;99.90;;;;;;5032887;28;20033;-81
2023/04/22 09:08:10;;;;;;;11.70;5.28;;;12.20;99.90;;;;;;5031589;28;20049;-81
2023/04/22 09:10:37;;;;;;;14.15;5.40;;;12.30;99.90;;;;;;5015960;28;20436;-82
2023/04/22 09:13:04;;;;;;;12.95;5.93;;;12.40;99.90;;;;;;5034305;28;20045;-81
2023/04/22 09:15:31;;;;;;;12.30;6.32;;;12.60;99.90;;;;;;5032287;28;20046;-82
2023/04/22 09:17:58;;;;;;;14.25;6.55;;;12.60;99.90;;;;;;5032666;28;20041;-81
2023/04/22 09:20:24;;;;;;;14.20;6.28;;;12.60;99.90;;;;;;5032288;28;20049;-82
2023/04/22 09:22:51;;;;;;;13.77;6.20;;;12.60;99.90;;;;;;5033373;28;20132;-82
2023/04/22 09:25:18;;;;;;;15.82;6.28;;;12.70;99.90;;;;;;5032701;28;20056;-81
2023/04/22 09:27:44;;;;;;;19.95;7.38;;;12.80;99.90;;;;;;5034898;28;20434;-81
2023/04/22 09:30:13;;;;;;;18.02;7.05;;;12.90;99.90;;;;;;5037686;28;20051;-82
2023/04/22 09:32:40;;;;;;;17.88;6.88;;;13.10;99.90;;;;;;5036702;28;20387;-81
2023/04/22 09:35:07;;;;;;;13.63;6.82;;;13.20;99.90;;;;;;5036088;28;20454;-82
2023/04/22 09:37:33;;;;;;;20.08;6.88;;;13.40;99.90;;;;;;5037269;28;20423;-81
2023/04/22 09:40:14;;;;;;;13.07;5.88;;;13.40;99.90;;;;;;5035219;28;20077;-81
2023/04/22 09:42:41;;;;;;;20.77;7.75;;;13.70;99.90;;;;;;5036730;28;20479;-82
2023/04/22 09:45:08;;;;;;;14.80;6.72;;;13.70;99.90;;;;;;5037795;28;20068;-81
2023/04/22 09:47:34;;;;;;;16.13;6.78;;;13.60;99.90;;;;;;5035337;28;20413;-81
2023/04/22 09:50:01;;;;;;;16.08;7.40;;;13.90;99.90;;;;;;5036797;28;20460;-82
2023/04/22 09:52:28;;;;;;;16.90;7.50;;;14.00;99.90;;;;;;5020189;28;20437;-81
2023/04/22 09:54:54;;;;;;;14.27;6.32;;;14.20;99.90;;;;;;5035105;28;20034;-82
2023/04/22 09:57:21;;;;;;;16.10;6.68;;;14.10;99.90;;;;;;5036673;28;20049;-81
2023/04/22 09:59:48;;;;;;;17.73;7.57;;;14.10;99.90;;;;;;5035620;28;20077;-81
2023/04/22 10:02:14;;;;;;;16.08;7.15;;;14.00;99.90;;;;;;5036036;28;20119;-81
2023/04/22 10:04:41;;;;;;;13.73;6.95;;;13.90;99.90;;;;;;5037620;28;20073;-81
2023/04/22 10:07:08;;;;;;;15.32;6.75;;;13.90;99.90;;;;;;5035512;28;20049;-82
2023/04/22 10:09:34;;;;;;;15.05;7.35;;;13.90;99.90;;;;;;5037304;28;20120;-81
2023/04/22 10:12:02;;;;;;;15.98;7.40;;;14.10;99.90;;;;;;5036257;28;20372;-81
2023/04/22 10:14:28;;;;;;;13.00;6.30;;;14.00;99.90;;;;;;5035383;28;20049;-82
2023/04/22 10:16:55;;;;;;;14.63;6.82;;;14.10;99.90;;;;;;5019816;28;20041;-80
2023/04/22 10:19:22;;;;;;;14.10;6.97;;;14.30;99.90;;;;;;5036880;28;20431;-80
2023/04/22 10:21:48;;;;;;;14.63;6.97;;;14.60;99.90;;;;;;5035125;28;20529;-80
2023/04/22 10:24:16;;;;;;;15.40;7.22;;;14.60;99.90;;;;;;5036843;28;20124;-81
2023/04/22 10:26:43;;;;;;;16.85;7.47;;;14.60;99.90;;;;;;5034540;28;20042;-81
2023/04/22 10:29:09;;;;;;;15.43;7.15;;;14.60;99.90;;;;;;5036188;28;20462;-80
2023/04/22 10:31:36;;;;;;;14.85;7.05;;;14.30;99.90;;;;;;5019449;28;20103;-80
2023/04/22 10:34:03;;;;;;;21.02;7.72;;;14.30;99.90;;;;;;5034434;28;20111;-80
2023/04/22 10:36:30;;;;;;;14.82;7.40;;;14.50;99.90;;;;;;5019456;28;20038;-80
2023/04/22 10:38:56;;;;;;;16.70;7.80;;;14.60;99.90;;;;;;5034763;28;20051;-81
2023/04/22 10:41:23;;;;;;;16.92;7.45;;;14.70;99.90;;;;;;5035128;28;20045;-80
2023/04/22 10:43:50;;;;;;;15.23;7.75;;;15.10;99.90;;;;;;5035816;28;20081;-81
2023/04/22 10:46:16;;;;;;;16.83;7.55;;;15.40;99.90;;;;;;5035899;28;20349;-82
2023/04/22 10:48:43;;;;;;;16.15;7.75;;;15.70;99.90;;;;;;5035106;28;20045;-81
2023/04/22 10:51:10;;;;;;;16.42;8.10;;;15.60;99.90;;;;;;5036534;28;20394;-81
2023/04/22 10:53:37;;;;;;;15.45;7.45;;;15.70;99.90;;;;;;5034554;28;20057;-81
2023/04/22 10:56:03;;;;;;;17.55;8.45;;;15.60;99.90;;;;;;5035127;28;20041;-81
2023/04/22 10:58:30;;;;;;;16.50;7.35;;;15.50;99.90;;;;;;5018976;28;20399;-81
2023/04/22 11:01:01;;;;;;;13.68;6.78;;;15.80;99.90;;;;;;5035458;28;20045;-80
2023/04/22 11:03:28;;;;;;;17.48;7.38;;;16.20;99.90;;;;;;5034966;28;20119;-81
2023/04/22 11:05:56;;;;;;;16.52;8.07;;;16.10;99.90;;;;;;5035901;28;20038;-81
2023/04/22 11:08:23;;;;;;;16.20;7.55;;;16.10;99.90;;;;;;5035203;28;20136;-80
2023/04/22 11:10:49;;;;;;;16.65;7.25;;;15.70;99.90;;;;;;5034851;28;20456;-80
2023/04/22 11:13:16;;;;;;;12.70;6.53;;;15.70;99.90;;;;;;5034431;28;20046;-80
2023/04/22 11:15:43;;;;;;;16.17;7.60;;;15.70;99.90;;;;;;5036083;28;20424;-81
2023/04/22 11:18:10;;;;;;;14.73;7.53;;;15.70;99.90;;;;;;5035590;28;20133;-81
2023/04/22 11:20:37;;;;;;;19.05;7.65;;;15.50;99.90;;;;;;5034966;28;20045;-81
2023/04/22 11:23:04;;;;;;;14.43;7.35;;;15.40;99.90;;;;;;5034989;28;20547;-81
2023/04/22 11:25:30;;;;;;;15.50;7.28;;;15.60;99.90;;;;;;5034494;28;20053;-81
2023/04/22 11:27:57;;;;;;;14.77;7.35;;;15.80;99.90;;;;;;5017832;28;20436;-81
2023/04/22 11:30:24;;;;;;;14.23;6.82;;;16.00;99.90;;;;;;5034627;28;20053;-81
2023/04/22 11:32:50;;;;;;;13.40;6.55;;;16.10;99.90;;;;;;5034286;28;20132;-81
2023/04/22 11:35:17;;;;;;;14.13;6.05;;;15.90;99.90;;;;;;5034784;28;20123;-80
2023/04/22 11:37:44;;;;;;;12.75;6.43;;;15.60;99.90;;;;;;5035567;28;20116;-81
2023/04/22 11:40:10;;;;;;;15.68;6.90;;;15.40;99.90;;;;;;5034030;28;20049;-80
2023/04/22 11:42:40;;;;;;;12.23;6.35;;;15.20;99.90;;;;;;5034652;28;20071;-81
2023/04/22 11:45:07;;;;;;;13.35;6.28;;;15.10;99.90;;;;;;5034848;28;20037;-81
2023/04/22 11:47:33;;;;;;;15.25;7.22;;;15.60;99.90;;;;;;5033098;28;20494;-81
2023/04/22 11:50:03;;;;;;;15.98;7.93;;;16.40;99.90;;;;;;5033282;28;20064;-80
2023/04/22 11:52:30;;;;;;;13.65;7.28;;;16.70;99.90;;;;;;5035752;28;20229;-81
2023/04/22 11:54:56;;;;;;;17.98;6.97;;;16.70;99.90;;;;;;5033111;28;20037;-80
2023/04/22 11:57:25;;;;;;;14.02;6.68;;;17.10;97.90;;;;;;5034115;28;20456;-81
2023/04/22 11:59:52;;;;;;;16.58;6.93;;;16.50;96.00;;;;;;5034268;28;20041;-80
2023/04/22 12:02:18;;;;;;;16.90;7.10;;;16.20;98.20;;;;;;5033658;28;20056;-81
2023/04/22 12:04:45;;;;;;;16.58;7.28;;;16.20;99.00;;;;;;5035121;28;20053;-79
2023/04/22 12:07:12;;;;;;;13.43;7.00;;;16.30;98.00;;;;;;5033083;28;20053;-79
2023/04/22 12:09:39;;;;;;;13.80;6.90;;;15.70;95.00;;;;;;5034433;28;20051;-79
2023/04/22 12:12:06;;;;;;;15.70;6.50;;;15.40;96.30;;;;;;5035470;28;20179;-81
2023/04/22 12:14:33;;;;;;;16.05;6.70;;;15.30;96.10;;;;;;5033989;28;20041;-81
2023/04/22 12:16:59;;;;;;;16.05;6.88;;;15.30;97.10;;;;;;5034471;28;20120;-80
2023/04/22 12:19:26;;;;;;;12.85;6.68;;;15.40;97.40;;;;;;5034907;28;20434;-81
2023/04/22 12:21:53;;;;;;;13.13;6.50;;;15.60;99.90;;;;;;5032851;28;20048;-80
2023/04/22 12:24:21;;;;;;;15.60;6.97;;;15.50;99.90;;;;;;5033380;28;20415;-80
2023/04/22 12:26:47;;;;;;;15.02;6.07;;;15.60;99.20;;;;;;5032723;28;20737;-80
2023/04/22 12:29:14;;;;;;;13.00;6.78;;;15.80;99.90;;;;;;5033626;28;20056;-81
2023/04/22 12:31:40;;;;;;;14.27;6.60;;;16.30;98.70;;;;;;5033445;28;20041;-79
2023/04/22 12:34:07;;;;;;;12.68;6.38;;;16.70;98.60;;;;;;5016288;28;20364;-79
2023/04/22 12:36:34;;;;;;;12.15;6.45;;;17.40;94.80;;;;;;5033773;28;20055;-81
2023/04/22 12:39:01;;;;;;;12.95;5.88;;;17.60;90.90;;;;;;5033248;28;20053;-80
2023/04/22 12:41:27;;;;;;;11.85;6.25;;;17.60;93.20;;;;;;5033087;28;20491;-80
2023/04/22 12:43:54;;;;;;;11.57;6.35;;;17.50;93.00;;;;;;5034271;28;20056;-81
2023/04/22 12:46:21;;;;;;;12.05;6.03;;;17.30;92.60;;;;;;5034034;28;20056;-80
2023/04/22 12:48:49;;;;;;;13.05;7.07;;;16.90;92.10;;;;;;5042431;28;20041;-80
2023/04/22 12:51:15;;;;;;;11.55;5.70;;;16.50;92.40;;;;;;5054410;28;20059;-82
2023/04/22 12:53:42;;;;;;;13.95;6.60;;;16.40;95.90;;;;;;5051815;28;20428;-81
2023/04/22 12:56:08;;;;;;;13.95;6.45;;;16.20;93.80;;;;;;5054129;28;20376;-80
2023/04/22 12:58:36;;;;;;;11.10;6.25;;;16.00;94.30;;;;;;5054340;28;20383;-81
2023/04/22 13:01:03;;;;;;;11.20;5.10;;;15.80;96.30;;;;;;5051435;28;20081;-81
2023/04/22 13:03:29;;;;;;;10.65;5.53;;;15.90;95.50;;;;;;5054245;28;20106;-80
2023/04/22 13:05:56;;;;;;;10.82;5.45;;;15.90;96.80;;;;;;5053460;28;20464;-81
2023/04/22 13:08:23;;;;;;;13.77;6.32;;;15.80;96.10;;;;;;5052726;28;20037;-78
2023/04/22 13:10:50;;;;;;;10.48;5.57;;;15.80;96.80;;;;;;5053191;28;20037;-80
2023/04/22 13:13:16;;;;;;;11.02;5.40;;;15.70;97.40;;;;;;5052920;28;20037;-79